PWSweather.com
Personal Weather Stations
Station Observations
KMOHERMA2
Stony Hill, Hermann, MO 65041

Stony HillHermann, MO 65041

Lat: 38.527, Lon: -91.414

Elevation: 896

Station Type: Davis Vantage Pro 2

Latest ConditionsUpdated 10:05:11 AM CDT Wednesday, Jun 20, 2018
Currently Today's Max Today's Min Today's Average
Temperature 76.9°F24.9°C 76.9°F24.9°C 66.6°F19.2°C 68.6°F20.3°C
Dew Point 72.0°F22.2°C 72.0°F22.2°C 65.3°F18.5°C 67.1°F19.5°C
Winds Calm Calm Calm -Calm - - Calm Calm
Wind Gusts -- -- - -
Humidity 85% 97% 84% 95%
Pressure 29.82 in1009.8 mb 29.88 in1011.9 mb 29.82 in1009.8 mb -
Precipitation - 21.61 in548.9 mm - -
Hour Temp Dew Point Humidity Winds Wind Gusts Pressure Precip Precip Rate Daily Precip Total
10:05 AM 76.9°F24.9°C 72.0°F22.2°C 85% Calm Calm -- 29.82 in1009.8 mb 14.01 in355.9 mm 1.44 in36.6 mm 21.61 in548.9 mm
10:00 AM 76.5°F24.7°C 71.2°F21.8°C 84% Calm Calm -- 29.83 in1010.2 mb 13.89 in352.8 mm 0.00 in0.0 mm 20.42 in518.7 mm
09:55 AM 76.4°F24.7°C 71.6°F22.0°C 85% Calm Calm -- 29.83 in1010.2 mb 14.05 in356.9 mm 1.92 in48.8 mm 19.35 in491.5 mm
09:50 AM 76.4°F24.7°C 71.6°F22.0°C 85% Calm Calm -- 29.83 in1010.2 mb 13.89 in352.8 mm 0.00 in0.0 mm 18.12 in460.2 mm
09:45 AM 76.1°F24.5°C 72.0°F22.2°C 87% Calm Calm -- 29.83 in1010.2 mb 14.01 in355.9 mm 0.48 in12.2 mm 17.05 in433.1 mm
09:40 AM 75.7°F24.3°C 70.9°F21.6°C 85% Calm Calm -- 29.83 in1010.2 mb 13.97 in354.8 mm 0.60 in15.2 mm 15.82 in401.8 mm
09:35 AM 75.7°F24.3°C 71.6°F22.0°C 87% Calm Calm -- 29.83 in1010.2 mb 13.92 in353.6 mm 12.24 in310.9 mm 14.63 in371.6 mm
09:30 AM 75.4°F24.1°C 71.6°F22.0°C 88% Calm Calm -- 29.83 in1010.2 mb 12.90 in327.7 mm 15.24 in387.1 mm 13.55 in344.2 mm
09:25 AM 75.3°F24.1°C 72.0°F22.2°C 89% Calm Calm -- 29.83 in1010.2 mb 11.63 in295.4 mm 13.32 in338.3 mm 12.28 in311.9 mm
09:20 AM 74.9°F23.8°C 71.8°F22.1°C 90% Calm Calm -- 29.83 in1010.2 mb 10.52 in267.2 mm 14.28 in362.7 mm 11.17 in283.7 mm
09:15 AM 74.7°F23.7°C 71.6°F22.0°C 90% Calm Calm -- 29.84 in1010.5 mb 9.33 in237.0 mm 14.28 in362.7 mm 9.98 in253.5 mm
09:10 AM 74.4°F23.6°C 72.0°F22.2°C 92% Calm Calm -- 29.84 in1010.5 mb 8.14 in206.8 mm 12.84 in326.1 mm 8.79 in223.3 mm
09:05 AM 73.9°F23.3°C 71.4°F21.9°C 92% Calm Calm -- 29.84 in1010.5 mb 7.07 in179.6 mm 14.28 in362.7 mm 7.72 in196.1 mm
09:00 AM 73.4°F23.0°C 71.2°F21.8°C 93% Calm Calm -- 29.84 in1010.5 mb 5.88 in149.4 mm 1.21 in30.7 mm 6.53 in165.9 mm
08:55 AM 73.2°F22.9°C 71.4°F21.9°C 94% Calm Calm -- 29.84 in1010.5 mb 4.77 in121.2 mm 14.28 in362.7 mm 5.42 in137.7 mm
08:50 AM 73.2°F22.9°C 71.8°F22.1°C 95% Calm Calm -- 29.84 in1010.5 mb 3.58 in90.9 mm 14.28 in362.7 mm 4.23 in107.4 mm
08:45 AM 72.8°F22.7°C 71.6°F22.0°C 96% Calm Calm -- 29.84 in1010.5 mb 2.39 in60.7 mm 14.28 in362.7 mm 3.04 in77.2 mm
08:40 AM 72.4°F22.4°C 71.1°F21.7°C 96% Calm Calm -- 29.84 in1010.5 mb 1.20 in30.5 mm 13.68 in347.5 mm 1.85 in47.0 mm
08:35 AM 71.9°F22.2°C 70.7°F21.5°C 96% Calm Calm -- 29.84 in1010.5 mb 0.06 in1.5 mm 0.72 in18.3 mm 0.71 in18.0 mm
08:30 AM 71.3°F21.8°C 70.0°F21.1°C 96% Calm Calm -- 29.84 in1010.5 mb 0.00 in0.0 mm 0.00 in0.0 mm 0.65 in16.5 mm
08:25 AM 71.0°F21.7°C 70.2°F21.2°C 97% Calm Calm -- 29.84 in1010.5 mb 0.00 in0.0 mm 0.00 in0.0 mm 0.65 in16.5 mm
08:20 AM 70.6°F21.4°C 69.3°F20.7°C 96% Calm Calm -- 29.84 in1010.5 mb 0.00 in0.0 mm 0.00 in0.0 mm 0.65 in16.5 mm
08:15 AM 70.1°F21.2°C 69.3°F20.7°C 97% Calm Calm -- 29.84 in1010.5 mb 0.00 in0.0 mm 0.00 in0.0 mm 0.65 in16.5 mm
08:10 AM 69.8°F21.0°C 68.5°F20.3°C 96% Calm Calm -- 29.84 in1010.5 mb 0.01 in0.3 mm 0.00 in0.0 mm 0.65 in16.5 mm
08:05 AM 68.9°F20.5°C 68.0°F20.0°C 97% Calm Calm -- 29.84 in1010.5 mb 0.01 in0.3 mm 0.00 in0.0 mm 0.65 in16.5 mm
08:00 AM 68.7°F20.4°C 67.5°F19.7°C 96% Calm Calm -- 29.84 in1010.5 mb 0.01 in0.3 mm 0.00 in0.0 mm 0.65 in16.5 mm
07:55 AM 68.5°F20.3°C 67.3°F19.6°C 96% Calm Calm -- 29.84 in1010.5 mb 0.01 in0.3 mm 0.00 in0.0 mm 0.65 in16.5 mm
07:50 AM 68.6°F20.3°C 67.3°F19.6°C 96% Calm Calm -- 29.84 in1010.5 mb 0.01 in0.3 mm 0.00 in0.0 mm 0.65 in16.5 mm
07:45 AM 68.6°F20.3°C 67.3°F19.6°C 96% Calm Calm -- 29.84 in1010.5 mb 0.01 in0.3 mm 0.00 in0.0 mm 0.65 in16.5 mm
07:40 AM 68.0°F20.0°C 66.7°F19.3°C 96% Calm Calm -- 29.85 in1010.8 mb 0.01 in0.3 mm 0.00 in0.0 mm 0.65 in16.5 mm
07:35 AM 67.8°F19.9°C 66.6°F19.2°C 96% Calm Calm -- 29.85 in1010.8 mb 0.01 in0.3 mm 0.00 in0.0 mm 0.65 in16.5 mm
07:30 AM 67.6°F19.8°C 66.7°F19.3°C 97% Calm Calm -- 29.85 in1010.8 mb 0.01 in0.3 mm 0.00 in0.0 mm 0.65 in16.5 mm
07:25 AM 67.6°F19.8°C 66.7°F19.3°C 97% Calm Calm -- 29.84 in1010.5 mb 0.01 in0.3 mm 0.00 in0.0 mm 0.65 in16.5 mm
07:20 AM 67.6°F19.8°C 66.7°F19.3°C 97% Calm Calm -- 29.84 in1010.5 mb 0.01 in0.3 mm 0.00 in0.0 mm 0.65 in16.5 mm
07:15 AM 67.6°F19.8°C 66.7°F19.3°C 97% Calm Calm -- 29.84 in1010.5 mb 0.02 in0.5 mm 0.00 in0.0 mm 0.65 in16.5 mm
07:10 AM 67.5°F19.7°C 66.6°F19.2°C 97% Calm Calm -- 29.84 in1010.5 mb 0.02 in0.5 mm 0.00 in0.0 mm 0.64 in16.3 mm
07:05 AM 67.5°F19.7°C 66.6°F19.2°C 97% Calm Calm -- 29.84 in1010.5 mb 0.05 in1.3 mm 0.00 in0.0 mm 0.64 in16.3 mm
07:00 AM 67.5°F19.7°C 66.6°F19.2°C 97% Calm Calm -- 29.84 in1010.5 mb 0.08 in2.0 mm 0.00 in0.0 mm 0.64 in16.3 mm
06:55 AM 67.6°F19.8°C 66.7°F19.3°C 97% Calm Calm -- 29.84 in1010.5 mb 0.11 in2.8 mm 0.00 in0.0 mm 0.64 in16.3 mm
06:50 AM 67.6°F19.8°C 66.7°F19.3°C 97% Calm Calm -- 29.85 in1010.8 mb 0.11 in2.8 mm 0.00 in0.0 mm 0.64 in16.3 mm
06:45 AM 67.6°F19.8°C 66.7°F19.3°C 97% Calm Calm -- 29.85 in1010.8 mb 0.11 in2.8 mm 0.00 in0.0 mm 0.64 in16.3 mm
06:40 AM 67.6°F19.8°C 66.7°F19.3°C 97% Calm Calm -- 29.85 in1010.8 mb 0.11 in2.8 mm 0.00 in0.0 mm 0.64 in16.3 mm
06:35 AM 67.6°F19.8°C 66.7°F19.3°C 97% Calm Calm -- 29.85 in1010.8 mb 0.11 in2.8 mm 0.00 in0.0 mm 0.64 in16.3 mm
06:30 AM 67.5°F19.7°C 66.6°F19.2°C 97% Calm Calm -- 29.85 in1010.8 mb 0.11 in2.8 mm 0.00 in0.0 mm 0.64 in16.3 mm
06:25 AM 67.4°F19.7°C 66.2°F19.0°C 96% Calm Calm -- 29.85 in1010.8 mb 0.11 in2.8 mm 0.00 in0.0 mm 0.64 in16.3 mm
06:20 AM 67.4°F19.7°C 66.2°F19.0°C 96% Calm Calm -- 29.86 in1011.2 mb 0.11 in2.8 mm 0.12 in3.0 mm 0.64 in16.3 mm
06:15 AM 67.3°F19.6°C 66.0°F18.9°C 96% Calm Calm -- 29.86 in1011.2 mb 0.10 in2.5 mm 0.12 in3.0 mm 0.63 in16.0 mm
06:10 AM 67.2°F19.6°C 66.0°F18.9°C 96% Calm Calm -- 29.86 in1011.2 mb 0.09 in2.3 mm 0.36 in9.1 mm 0.62 in15.7 mm
06:05 AM 67.1°F19.5°C 65.8°F18.8°C 96% Calm Calm -- 29.86 in1011.2 mb 0.06 in1.5 mm 0.36 in9.1 mm 0.59 in15.0 mm
06:00 AM 67.0°F19.4°C 65.7°F18.7°C 96% Calm Calm -- 29.86 in1011.2 mb 0.03 in0.8 mm 0.03 in0.8 mm 0.56 in14.2 mm
05:55 AM 66.9°F19.4°C 65.7°F18.7°C 96% Calm Calm -- 29.85 in1010.8 mb 0.00 in0.0 mm 0.00 in0.0 mm 0.53 in13.5 mm
05:50 AM 66.9°F19.4°C 65.7°F18.7°C 96% Calm Calm -- 29.85 in1010.8 mb 0.00 in0.0 mm 0.00 in0.0 mm 0.53 in13.5 mm
05:45 AM 66.9°F19.4°C 65.7°F18.7°C 96% Calm Calm -- 29.85 in1010.8 mb 0.00 in0.0 mm 0.00 in0.0 mm 0.53 in13.5 mm
05:40 AM 66.9°F19.4°C 65.7°F18.7°C 96% Calm Calm -- 29.85 in1010.8 mb 0.00 in0.0 mm 0.00 in0.0 mm 0.53 in13.5 mm
05:35 AM 66.8°F19.3°C 65.5°F18.6°C 96% Calm Calm -- 29.85 in1010.8 mb 0.00 in0.0 mm 0.00 in0.0 mm 0.53 in13.5 mm
05:30 AM 66.8°F19.3°C 65.5°F18.6°C 96% Calm Calm -- 29.85 in1010.8 mb 0.00 in0.0 mm 0.00 in0.0 mm 0.53 in13.5 mm
05:25 AM 66.7°F19.3°C 65.5°F18.6°C 96% Calm Calm -- 29.85 in1010.8 mb 0.00 in0.0 mm 0.00 in0.0 mm 0.53 in13.5 mm
05:20 AM 66.7°F19.3°C 65.5°F18.6°C 96% Calm Calm -- 29.85 in1010.8 mb 0.00 in0.0 mm 0.00 in0.0 mm 0.53 in13.5 mm
05:15 AM 66.7°F19.3°C 65.5°F18.6°C 96% Calm Calm -- 29.85 in1010.8 mb 0.00 in0.0 mm 0.00 in0.0 mm 0.53 in13.5 mm
05:10 AM 66.7°F19.3°C 65.5°F18.6°C 96% Calm Calm -- 29.85 in1010.8 mb 0.00 in0.0 mm 0.00 in0.0 mm 0.53 in13.5 mm
05:05 AM 66.7°F19.3°C 65.5°F18.6°C 96% Calm Calm -- 29.85 in1010.8 mb 0.00 in0.0 mm 0.00 in0.0 mm 0.53 in13.5 mm
05:00 AM 66.6°F19.2°C 65.3°F18.5°C 96% Calm Calm -- 29.85 in1010.8 mb 0.00 in0.0 mm 0.00 in0.0 mm 0.53 in13.5 mm
04:55 AM 66.7°F19.3°C 65.5°F18.6°C 96% Calm Calm -- 29.84 in1010.5 mb 0.00 in0.0 mm 0.00 in0.0 mm 0.53 in13.5 mm
04:50 AM 66.7°F19.3°C 65.5°F18.6°C 96% Calm Calm -- 29.84 in1010.5 mb 0.00 in0.0 mm 0.00 in0.0 mm 0.53 in13.5 mm
04:45 AM 66.7°F19.3°C 65.5°F18.6°C 96% Calm Calm -- 29.84 in1010.5 mb 0.00 in0.0 mm 0.00 in0.0 mm 0.53 in13.5 mm
04:40 AM 66.7°F19.3°C 65.5°F18.6°C 96% Calm Calm -- 29.84 in1010.5 mb 0.00 in0.0 mm 0.00 in0.0 mm 0.53 in13.5 mm
04:35 AM 66.8°F19.3°C 65.5°F18.6°C 96% Calm Calm -- 29.84 in1010.5 mb 0.00 in0.0 mm 0.00 in0.0 mm 0.53 in13.5 mm
04:30 AM 66.8°F19.3°C 65.5°F18.6°C 96% Calm Calm -- 29.84 in1010.5 mb 0.00 in0.0 mm 0.00 in0.0 mm 0.53 in13.5 mm
04:25 AM 66.8°F19.3°C 65.5°F18.6°C 96% Calm Calm -- 29.84 in1010.5 mb 0.00 in0.0 mm 0.00 in0.0 mm 0.53 in13.5 mm
04:20 AM 66.8°F19.3°C 65.5°F18.6°C 96% Calm Calm -- 29.84 in1010.5 mb 0.00 in0.0 mm 0.00 in0.0 mm 0.53 in13.5 mm
04:15 AM 66.8°F19.3°C 65.5°F18.6°C 96% Calm Calm -- 29.84 in1010.5 mb 0.00 in0.0 mm 0.00 in0.0 mm 0.53 in13.5 mm
04:10 AM 66.8°F19.3°C 65.5°F18.6°C 96% Calm Calm -- 29.84 in1010.5 mb 0.00 in0.0 mm 0.00 in0.0 mm 0.53 in13.5 mm
04:05 AM 66.8°F19.3°C 65.5°F18.6°C 96% Calm Calm -- 29.84 in1010.5 mb 0.00 in0.0 mm 0.00 in0.0 mm 0.53 in13.5 mm
04:00 AM 66.8°F19.3°C 65.5°F18.6°C 96% Calm Calm -- 29.84 in1010.5 mb 0.00 in0.0 mm 0.00 in0.0 mm 0.53 in13.5 mm
03:55 AM 66.8°F19.3°C 65.5°F18.6°C 96% Calm Calm -- 29.83 in1010.2 mb 0.00 in0.0 mm 0.00 in0.0 mm 0.53 in13.5 mm
03:50 AM 66.8°F19.3°C 65.5°F18.6°C 96% Calm Calm -- 29.83 in1010.2 mb 0.00 in0.0 mm 0.00 in0.0 mm 0.53 in13.5 mm
03:45 AM 66.9°F19.4°C 65.7°F18.7°C 96% Calm Calm -- 29.83 in1010.2 mb 0.00 in0.0 mm 0.00 in0.0 mm 0.53 in13.5 mm
03:40 AM 66.9°F19.4°C 65.7°F18.7°C 96% Calm Calm -- 29.83 in1010.2 mb 0.00 in0.0 mm 0.00 in0.0 mm 0.53 in13.5 mm
03:35 AM 67.0°F19.4°C 65.7°F18.7°C 96% Calm Calm -- 29.83 in1010.2 mb 0.00 in0.0 mm 0.00 in0.0 mm 0.53 in13.5 mm
03:30 AM 67.0°F19.4°C 65.7°F18.7°C 96% Calm Calm -- 29.83 in1010.2 mb 0.00 in0.0 mm 0.00 in0.0 mm 0.53 in13.5 mm
03:25 AM 67.1°F19.5°C 65.8°F18.8°C 96% Calm Calm -- 29.83 in1010.2 mb 0.00 in0.0 mm 0.00 in0.0 mm 0.53 in13.5 mm
03:20 AM 67.1°F19.5°C 65.8°F18.8°C 96% Calm Calm -- 29.83 in1010.2 mb 0.00 in0.0 mm 0.00 in0.0 mm 0.53 in13.5 mm
03:15 AM 67.2°F19.6°C 66.0°F18.9°C 96% Calm Calm -- 29.84 in1010.5 mb 0.00 in0.0 mm 0.00 in0.0 mm 0.53 in13.5 mm
03:10 AM 67.2°F19.6°C 66.0°F18.9°C 96% Calm Calm -- 29.84 in1010.5 mb 0.00 in0.0 mm 0.00 in0.0 mm 0.53 in13.5 mm
03:05 AM 67.3°F19.6°C 66.0°F18.9°C 96% Calm Calm -- 29.84 in1010.5 mb 0.00 in0.0 mm 0.00 in0.0 mm 0.53 in13.5 mm
03:00 AM 67.2°F19.6°C 66.0°F18.9°C 96% Calm Calm -- 29.84 in1010.5 mb 0.00 in0.0 mm 0.00 in0.0 mm 0.53 in13.5 mm
02:55 AM 67.3°F19.6°C 66.0°F18.9°C 96% Calm Calm -- 29.85 in1010.8 mb 0.00 in0.0 mm 0.00 in0.0 mm 0.53 in13.5 mm
02:50 AM 67.2°F19.6°C 66.0°F18.9°C 96% Calm Calm -- 29.85 in1010.8 mb 0.01 in0.3 mm 0.00 in0.0 mm 0.53 in13.5 mm
02:45 AM 67.2°F19.6°C 66.0°F18.9°C 96% Calm Calm -- 29.85 in1010.8 mb 0.01 in0.3 mm 0.00 in0.0 mm 0.53 in13.5 mm
02:40 AM 67.2°F19.6°C 66.0°F18.9°C 96% Calm Calm -- 29.85 in1010.8 mb 0.01 in0.3 mm 0.00 in0.0 mm 0.53 in13.5 mm
02:35 AM 67.2°F19.6°C 66.0°F18.9°C 96% Calm Calm -- 29.84 in1010.5 mb 0.02 in0.5 mm 0.00 in0.0 mm 0.53 in13.5 mm
02:30 AM 67.1°F19.5°C 65.8°F18.8°C 96% Calm Calm -- 29.84 in1010.5 mb 0.02 in0.5 mm 0.00 in0.0 mm 0.53 in13.5 mm
02:25 AM 67.1°F19.5°C 65.8°F18.8°C 96% Calm Calm -- 29.84 in1010.5 mb 0.03 in0.8 mm 0.00 in0.0 mm 0.53 in13.5 mm
02:20 AM 67.1°F19.5°C 65.8°F18.8°C 96% Calm Calm -- 29.84 in1010.5 mb 0.04 in1.0 mm 0.00 in0.0 mm 0.53 in13.5 mm
02:15 AM 67.1°F19.5°C 65.8°F18.8°C 96% Calm Calm -- 29.84 in1010.5 mb 0.05 in1.3 mm 0.00 in0.0 mm 0.53 in13.5 mm
02:10 AM 67.1°F19.5°C 65.8°F18.8°C 96% Calm Calm -- 29.84 in1010.5 mb 0.05 in1.3 mm 0.00 in0.0 mm 0.53 in13.5 mm
02:05 AM 67.1°F19.5°C 65.8°F18.8°C 96% Calm Calm -- 29.83 in1010.2 mb 0.07 in1.8 mm 0.00 in0.0 mm 0.53 in13.5 mm
02:00 AM 67.1°F19.5°C 65.8°F18.8°C 96% Calm Calm -- 29.84 in1010.5 mb 0.08 in2.0 mm 0.00 in0.0 mm 0.53 in13.5 mm
01:55 AM 67.1°F19.5°C 65.8°F18.8°C 96% Calm Calm -- 29.84 in1010.5 mb 0.09 in2.3 mm 0.00 in0.0 mm 0.53 in13.5 mm
01:50 AM 67.1°F19.5°C 65.8°F18.8°C 96% Calm Calm -- 29.84 in1010.5 mb 0.10 in2.5 mm 0.12 in3.0 mm 0.53 in13.5 mm
01:45 AM 67.2°F19.6°C 66.0°F18.9°C 96% Calm Calm -- 29.86 in1011.2 mb 0.09 in2.3 mm 0.00 in0.0 mm 0.52 in13.2 mm
01:40 AM 67.3°F19.6°C 66.0°F18.9°C 96% Calm Calm -- 29.86 in1011.2 mb 0.09 in2.3 mm 0.12 in3.0 mm 0.52 in13.2 mm
01:35 AM 67.3°F19.6°C 66.0°F18.9°C 96% Calm Calm -- 29.86 in1011.2 mb 0.08 in2.0 mm 0.00 in0.0 mm 0.51 in13.0 mm
01:30 AM 67.4°F19.7°C 66.2°F19.0°C 96% Calm Calm -- 29.85 in1010.8 mb 0.08 in2.0 mm 0.12 in3.0 mm 0.51 in13.0 mm
01:25 AM 67.5°F19.7°C 66.2°F19.0°C 96% Calm Calm -- 29.85 in1010.8 mb 0.07 in1.8 mm 0.00 in0.0 mm 0.50 in12.7 mm
01:20 AM 67.4°F19.7°C 66.2°F19.0°C 96% Calm Calm -- 29.85 in1010.8 mb 0.08 in2.0 mm 0.00 in0.0 mm 0.49 in12.4 mm
01:15 AM 67.5°F19.7°C 66.2°F19.0°C 96% Calm Calm -- 29.86 in1011.2 mb 0.10 in2.5 mm 0.00 in0.0 mm 0.48 in12.2 mm
01:10 AM 68.0°F20.0°C 66.7°F19.3°C 96% Calm Calm -- 29.86 in1011.2 mb 0.13 in3.3 mm 0.00 in0.0 mm 0.48 in12.2 mm
01:05 AM 68.2°F20.1°C 66.9°F19.4°C 96% Calm Calm -- 29.86 in1011.2 mb 0.23 in5.8 mm 0.00 in0.0 mm 0.46 in11.7 mm
01:00 AM 68.1°F20.1°C 66.9°F19.4°C 96% Calm Calm -- 29.87 in1011.5 mb 0.43 in10.9 mm 0.00 in0.0 mm 0.45 in11.4 mm
12:55 AM 68.1°F20.1°C 66.9°F19.4°C 96% Calm Calm -- 29.87 in1011.5 mb 0.50 in12.7 mm 0.00 in0.0 mm 0.44 in11.2 mm
12:50 AM 68.0°F20.0°C 66.7°F19.3°C 96% Calm Calm -- 29.87 in1011.5 mb 0.52 in13.2 mm 0.00 in0.0 mm 0.43 in10.9 mm
12:45 AM 67.9°F19.9°C 66.6°F19.2°C 96% Calm Calm -- 29.88 in1011.9 mb 0.59 in15.0 mm 0.00 in0.0 mm 0.43 in10.9 mm
12:40 AM 67.7°F19.8°C 66.4°F19.1°C 96% Calm Calm -- 29.88 in1011.9 mb 0.70 in17.8 mm 0.00 in0.0 mm 0.43 in10.9 mm
12:35 AM 67.6°F19.8°C 66.4°F19.1°C 96% Calm Calm -- 29.88 in1011.9 mb 0.70 in17.8 mm 0.00 in0.0 mm 0.43 in10.9 mm
12:30 AM 67.6°F19.8°C 66.4°F19.1°C 96% Calm Calm -- 29.88 in1011.9 mb 0.70 in17.8 mm 0.00 in0.0 mm 0.43 in10.9 mm
12:25 AM 67.6°F19.8°C 66.4°F19.1°C 96% Calm Calm -- 29.88 in1011.9 mb 0.70 in17.8 mm 0.24 in6.1 mm 0.43 in10.9 mm
12:20 AM 67.6°F19.8°C 66.4°F19.1°C 96% Calm Calm -- 29.88 in1011.9 mb 0.68 in17.3 mm 0.36 in9.1 mm 0.41 in10.4 mm
12:15 AM 67.6°F19.8°C 66.4°F19.1°C 96% Calm Calm -- 29.88 in1011.9 mb 0.65 in16.5 mm 0.36 in9.1 mm 0.38 in9.7 mm
12:10 AM 67.8°F19.9°C 66.6°F19.2°C 96% Calm Calm -- 29.87 in1011.5 mb 0.62 in15.7 mm 1.20 in30.5 mm 0.35 in8.9 mm
12:05 AM 68.1°F20.1°C 66.9°F19.4°C 96% Calm Calm -- 29.88 in1011.9 mb 0.52 in13.2 mm 2.76 in70.1 mm 0.25 in6.4 mm
12:00 AM 68.2°F20.1°C 66.9°F19.4°C 96% Calm Calm -- 29.88 in1011.9 mb 0.29 in7.4 mm 0.00 in0.0 mm 0.02 in0.5 mm